Terminal Aerodrome Forecast
Issued by NWS

Home | Current Version | Previous Version | Text Only | Print | Product List | Glossary On
Versions: 1 2 3 4 5 6 7 8 9 10 11 12 13 14 15 16 17 18 19 20 21 22
000
FTUS42 KRAH 242324
TAFRWI
TAF
KRWI 242324Z 2500/2524 19006KT 6SM -RA BR VCTS SCT035CB BKN110
      TEMPO 2500/2501 VRB20G33KT 2SM TSRA BR SCT018 BKN028CB
     FM250200 25004KT 5SM -RA BR SCT060 OVC080
     FM250500 25003KT P6SM OVC100
      TEMPO 2508/2512 4SM BR
     FM251400 34005KT P6SM SCT060 BKN180=

USA.gov is the U.S. government's official web portal to all federal, state and local government web resources and services.